sensor_id;sensor_type;location;lat;lon;timestamp;temperature;humidity
71367;DHT22;60030;52.274;8.040;2023-04-03T00:01:47;5.70;99.90
71367;DHT22;60030;52.274;8.040;2023-04-03T00:04:14;5.80;99.90
71367;DHT22;60030;52.274;8.040;2023-04-03T00:06:41;5.70;99.90
71367;DHT22;60030;52.274;8.040;2023-04-03T00:09:10;5.70;99.90
71367;DHT22;60030;52.274;8.040;2023-04-03T00:11:37;5.40;99.90
71367;DHT22;60030;52.274;8.040;2023-04-03T00:14:04;5.50;99.90
71367;DHT22;60030;52.274;8.040;2023-04-03T00:16:31;5.50;99.90
71367;DHT22;60030;52.274;8.040;2023-04-03T00:18:58;5.20;99.90
71367;DHT22;60030;52.274;8.040;2023-04-03T00:21:25;5.30;99.90
71367;DHT22;60030;52.274;8.040;2023-04-03T00:23:52;5.50;99.90
71367;DHT22;60030;52.274;8.040;2023-04-03T00:26:21;5.40;99.90
71367;DHT22;60030;52.274;8.040;2023-04-03T00:28:48;5.30;99.90
71367;DHT22;60030;52.274;8.040;2023-04-03T00:31:16;5.20;99.90
71367;DHT22;60030;52.274;8.040;2023-04-03T00:33:43;5.10;99.90
71367;DHT22;60030;52.274;8.040;2023-04-03T00:36:10;5.10;99.90
71367;DHT22;60030;52.274;8.040;2023-04-03T00:38:38;5.00;99.90
71367;DHT22;60030;52.274;8.040;2023-04-03T00:41:05;5.00;99.90
71367;DHT22;60030;52.274;8.040;2023-04-03T00:43:34;5.10;99.90
71367;DHT22;60030;52.274;8.040;2023-04-03T00:46:01;5.30;99.90
71367;DHT22;60030;52.274;8.040;2023-04-03T00:48:30;5.30;99.90
71367;DHT22;60030;52.274;8.040;2023-04-03T00:50:58;4.90;99.90
71367;DHT22;60030;52.274;8.040;2023-04-03T00:53:29;4.80;99.90
71367;DHT22;60030;52.274;8.040;2023-04-03T00:55:58;4.60;99.90
71367;DHT22;60030;52.274;8.040;2023-04-03T00:58:32;4.70;99.90
71367;DHT22;60030;52.274;8.040;2023-04-03T01:01:05;4.70;99.90
71367;DHT22;60030;52.274;8.040;2023-04-03T01:03:33;4.70;99.90
71367;DHT22;60030;52.274;8.040;2023-04-03T01:06:03;4.80;99.90
71367;DHT22;60030;52.274;8.040;2023-04-03T01:08:31;4.70;99.90
71367;DHT22;60030;52.274;8.040;2023-04-03T01:10:58;4.70;99.90
71367;DHT22;60030;52.274;8.040;2023-04-03T01:13:28;4.90;99.90
71367;DHT22;60030;52.274;8.040;2023-04-03T01:15:55;4.80;99.90
71367;DHT22;60030;52.274;8.040;2023-04-03T01:18:24;4.70;99.90
71367;DHT22;60030;52.274;8.040;2023-04-03T01:24:25;4.60;99.90
71367;DHT22;60030;52.274;8.040;2023-04-03T01:26:54;4.50;99.90
71367;DHT22;60030;52.274;8.040;2023-04-03T01:29:22;4.50;99.90
71367;DHT22;60030;52.274;8.040;2023-04-03T01:31:55;4.40;99.90
71367;DHT22;60030;52.274;8.040;2023-04-03T01:34:23;4.30;99.90
71367;DHT22;60030;52.274;8.040;2023-04-03T01:36:51;4.20;99.90
71367;DHT22;60030;52.274;8.040;2023-04-03T01:39:19;4.20;99.90
71367;DHT22;60030;52.274;8.040;2023-04-03T01:41:47;4.10;99.90
71367;DHT22;60030;52.274;8.040;2023-04-03T01:44:24;4.10;99.90
71367;DHT22;60030;52.274;8.040;2023-04-03T01:46:54;4.30;99.90
71367;DHT22;60030;52.274;8.040;2023-04-03T01:49:22;4.40;99.90
71367;DHT22;60030;52.274;8.040;2023-04-03T01:51:50;4.50;99.90
71367;DHT22;60030;52.274;8.040;2023-04-03T01:54:17;4.50;99.90
71367;DHT22;60030;52.274;8.040;2023-04-03T01:56:44;4.50;99.90
71367;DHT22;60030;52.274;8.040;2023-04-03T01:59:12;4.70;99.90
71367;DHT22;60030;52.274;8.040;2023-04-03T02:01:40;4.50;99.90
71367;DHT22;60030;52.274;8.040;2023-04-03T02:04:08;4.40;99.90
71367;DHT22;60030;52.274;8.040;2023-04-03T02:06:36;4.30;99.90
71367;DHT22;60030;52.274;8.040;2023-04-03T02:09:03;4.30;99.90
71367;DHT22;60030;52.274;8.040;2023-04-03T02:11:30;4.30;99.90
71367;DHT22;60030;52.274;8.040;2023-04-03T02:13:58;4.40;99.90
71367;DHT22;60030;52.274;8.040;2023-04-03T02:16:25;4.60;99.90
71367;DHT22;60030;52.274;8.040;2023-04-03T02:18:52;4.30;99.90
71367;DHT22;60030;52.274;8.040;2023-04-03T02:21:20;4.30;99.90
71367;DHT22;60030;52.274;8.040;2023-04-03T02:23:47;4.30;99.90
71367;DHT22;60030;52.274;8.040;2023-04-03T02:26:16;4.30;99.90
71367;DHT22;60030;52.274;8.040;2023-04-03T02:28:45;4.00;99.90
71367;DHT22;60030;52.274;8.040;2023-04-03T02:31:12;4.20;99.90
71367;DHT22;60030;52.274;8.040;2023-04-03T02:33:41;4.10;99.90
71367;DHT22;60030;52.274;8.040;2023-04-03T02:36:10;4.10;99.90
71367;DHT22;60030;52.274;8.040;2023-04-03T02:38:41;4.20;99.90
71367;DHT22;60030;52.274;8.040;2023-04-03T02:41:11;4.00;99.90
71367;DHT22;60030;52.274;8.040;2023-04-03T02:43:38;4.00;99.90
71367;DHT22;60030;52.274;8.040;2023-04-03T02:46:06;3.90;99.90
71367;DHT22;60030;52.274;8.040;2023-04-03T02:48:34;4.00;99.90
71367;DHT22;60030;52.274;8.040;2023-04-03T02:51:01;3.80;99.90
71367;DHT22;60030;52.274;8.040;2023-04-03T02:53:28;3.70;99.90
71367;DHT22;60030;52.274;8.040;2023-04-03T02:55:57;3.80;99.90
71367;DHT22;60030;52.274;8.040;2023-04-03T02:58:24;3.80;99.90
71367;DHT22;60030;52.274;8.040;2023-04-03T03:00:53;3.80;99.90
71367;DHT22;60030;52.274;8.040;2023-04-03T03:03:20;3.60;99.90
71367;DHT22;60030;52.274;8.040;2023-04-03T03:05:47;3.90;99.90
71367;DHT22;60030;52.274;8.040;2023-04-03T03:08:14;3.80;99.90
71367;DHT22;60030;52.274;8.040;2023-04-03T03:10:41;3.60;99.90
71367;DHT22;60030;52.274;8.040;2023-04-03T03:13:10;3.30;99.90
71367;DHT22;60030;52.274;8.040;2023-04-03T03:15:37;3.20;99.90
71367;DHT22;60030;52.274;8.040;2023-04-03T03:18:05;3.20;99.90
71367;DHT22;60030;52.274;8.040;2023-04-03T03:20:31;3.40;99.90
71367;DHT22;60030;52.274;8.040;2023-04-03T03:22:59;3.30;99.90
71367;DHT22;60030;52.274;8.040;2023-04-03T03:25:26;3.20;99.90
71367;DHT22;60030;52.274;8.040;2023-04-03T03:27:53;3.40;99.90
71367;DHT22;60030;52.274;8.040;2023-04-03T03:30:22;3.30;99.90
71367;DHT22;60030;52.274;8.040;2023-04-03T03:32:52;3.30;99.90
71367;DHT22;60030;52.274;8.040;2023-04-03T03:35:20;3.20;99.90
71367;DHT22;60030;52.274;8.040;2023-04-03T03:37:47;3.40;99.90
71367;DHT22;60030;52.274;8.040;2023-04-03T03:40:14;3.30;99.90
71367;DHT22;60030;52.274;8.040;2023-04-03T03:42:42;3.40;99.90
71367;DHT22;60030;52.274;8.040;2023-04-03T03:45:10;3.60;99.90
71367;DHT22;60030;52.274;8.040;2023-04-03T03:47:38;3.60;99.90
71367;DHT22;60030;52.274;8.040;2023-04-03T03:50:08;3.40;99.90
71367;DHT22;60030;52.274;8.040;2023-04-03T03:52:35;3.20;99.90
71367;DHT22;60030;52.274;8.040;2023-04-03T03:55:02;3.30;99.90
71367;DHT22;60030;52.274;8.040;2023-04-03T03:57:30;3.40;99.90
71367;DHT22;60030;52.274;8.040;2023-04-03T03:59:57;3.20;99.90
71367;DHT22;60030;52.274;8.040;2023-04-03T04:02:24;3.10;99.90
71367;DHT22;60030;52.274;8.040;2023-04-03T04:04:54;3.00;99.90
71367;DHT22;60030;52.274;8.040;2023-04-03T04:07:21;3.10;99.90
71367;DHT22;60030;52.274;8.040;2023-04-03T04:09:48;2.90;99.90
71367;DHT22;60030;52.274;8.040;2023-04-03T04:12:15;3.10;99.90
71367;DHT22;60030;52.274;8.040;2023-04-03T04:14:42;3.10;99.90
71367;DHT22;60030;52.274;8.040;2023-04-03T04:17:12;3.30;99.90
71367;DHT22;60030;52.274;8.040;2023-04-03T04:19:40;3.10;99.90
71367;DHT22;60030;52.274;8.040;2023-04-03T04:22:08;3.00;99.90
71367;DHT22;60030;52.274;8.040;2023-04-03T04:24:36;3.10;99.90
71367;DHT22;60030;52.274;8.040;2023-04-03T04:27:03;3.20;99.90
71367;DHT22;60030;52.274;8.040;2023-04-03T04:29:31;2.90;99.90
71367;DHT22;60030;52.274;8.040;2023-04-03T04:32:01;3.00;99.90
71367;DHT22;60030;52.274;8.040;2023-04-03T04:34:28;2.90;99.90
71367;DHT22;60030;52.274;8.040;2023-04-03T04:36:56;3.00;99.90
71367;DHT22;60030;52.274;8.040;2023-04-03T04:39:25;2.90;99.90
71367;DHT22;60030;52.274;8.040;2023-04-03T04:41:54;2.90;99.90
71367;DHT22;60030;52.274;8.040;2023-04-03T04:44:22;3.00;99.90
71367;DHT22;60030;52.274;8.040;2023-04-03T04:46:49;3.00;99.90
71367;DHT22;60030;52.274;8.040;2023-04-03T04:49:16;3.00;99.90
71367;DHT22;60030;52.274;8.040;2023-04-03T04:51:43;3.10;99.90
71367;DHT22;60030;52.274;8.040;2023-04-03T04:54:11;3.10;99.90
71367;DHT22;60030;52.274;8.040;2023-04-03T04:56:40;3.10;99.90
71367;DHT22;60030;52.274;8.040;2023-04-03T04:59:07;3.20;99.90
71367;DHT22;60030;52.274;8.040;2023-04-03T05:01:35;3.20;99.90
71367;DHT22;60030;52.274;8.040;2023-04-03T05:04:09;3.00;99.90
71367;DHT22;60030;52.274;8.040;2023-04-03T05:06:38;3.10;99.90
71367;DHT22;60030;52.274;8.040;2023-04-03T05:09:09;3.20;99.90
71367;DHT22;60030;52.274;8.040;2023-04-03T05:11:37;3.20;99.90
71367;DHT22;60030;52.274;8.040;2023-04-03T05:14:07;3.30;99.90
71367;DHT22;60030;52.274;8.040;2023-04-03T05:16:35;3.40;99.90
71367;DHT22;60030;52.274;8.040;2023-04-03T05:19:03;3.30;99.90
71367;DHT22;60030;52.274;8.040;2023-04-03T05:21:30;3.20;99.90
71367;DHT22;60030;52.274;8.040;2023-04-03T05:24:01;3.10;99.90
71367;DHT22;60030;52.274;8.040;2023-04-03T05:26:32;2.90;99.90
71367;DHT22;60030;52.274;8.040;2023-04-03T05:29:00;2.90;99.90
71367;DHT22;60030;52.274;8.040;2023-04-03T05:31:29;2.70;99.90
71367;DHT22;60030;52.274;8.040;2023-04-03T05:33:56;2.70;99.90
71367;DHT22;60030;52.274;8.040;2023-04-03T05:36:25;3.00;99.90
71367;DHT22;60030;52.274;8.040;2023-04-03T05:38:57;2.90;99.90
71367;DHT22;60030;52.274;8.040;2023-04-03T05:41:28;3.00;99.90
71367;DHT22;60030;52.274;8.040;2023-04-03T05:43:55;3.10;99.90
71367;DHT22;60030;52.274;8.040;2023-04-03T05:46:23;3.00;99.90
71367;DHT22;60030;52.274;8.040;2023-04-03T05:48:55;2.80;99.90
71367;DHT22;60030;52.274;8.040;2023-04-03T05:51:29;3.00;99.90
71367;DHT22;60030;52.274;8.040;2023-04-03T05:54:08;2.90;99.90
71367;DHT22;60030;52.274;8.040;2023-04-03T05:56:36;2.90;99.90
71367;DHT22;60030;52.274;8.040;2023-04-03T05:59:03;2.90;99.90
71367;DHT22;60030;52.274;8.040;2023-04-03T06:01:30;3.00;99.90
71367;DHT22;60030;52.274;8.040;2023-04-03T06:03:58;3.10;99.90
71367;DHT22;60030;52.274;8.040;2023-04-03T06:06:25;3.20;99.90
71367;DHT22;60030;52.274;8.040;2023-04-03T06:08:52;3.10;99.90
71367;DHT22;60030;52.274;8.040;2023-04-03T06:11:21;2.90;99.90
71367;DHT22;60030;52.274;8.040;2023-04-03T06:13:48;3.00;99.90
71367;DHT22;60030;52.274;8.040;2023-04-03T06:16:17;3.10;99.90
71367;DHT22;60030;52.274;8.040;2023-04-03T06:18:45;3.00;99.90
71367;DHT22;60030;52.274;8.040;2023-04-03T06:21:14;3.00;99.90
71367;DHT22;60030;52.274;8.040;2023-04-03T06:23:41;3.10;99.90
71367;DHT22;60030;52.274;8.040;2023-04-03T06:26:08;3.20;99.90
71367;DHT22;60030;52.274;8.040;2023-04-03T06:28:36;3.30;99.90
71367;DHT22;60030;52.274;8.040;2023-04-03T06:31:03;3.20;99.90
71367;DHT22;60030;52.274;8.040;2023-04-03T06:33:30;3.20;99.90
71367;DHT22;60030;52.274;8.040;2023-04-03T06:35:58;3.10;99.90
71367;DHT22;60030;52.274;8.040;2023-04-03T06:38:26;3.10;99.90
71367;DHT22;60030;52.274;8.040;2023-04-03T06:40:53;3.20;99.90
71367;DHT22;60030;52.274;8.040;2023-04-03T06:43:21;3.50;99.90
71367;DHT22;60030;52.274;8.040;2023-04-03T06:45:48;3.40;99.90
71367;DHT22;60030;52.274;8.040;2023-04-03T06:48:16;3.40;99.90
71367;DHT22;60030;52.274;8.040;2023-04-03T06:50:43;3.50;99.90
71367;DHT22;60030;52.274;8.040;2023-04-03T06:53:10;3.60;99.90
71367;DHT22;60030;52.274;8.040;2023-04-03T06:55:39;3.60;99.90
71367;DHT22;60030;52.274;8.040;2023-04-03T06:58:07;3.50;99.90
71367;DHT22;60030;52.274;8.040;2023-04-03T07:00:34;3.30;99.90
71367;DHT22;60030;52.274;8.040;2023-04-03T07:03:02;3.40;99.90
71367;DHT22;60030;52.274;8.040;2023-04-03T07:05:29;3.60;99.90
71367;DHT22;60030;52.274;8.040;2023-04-03T07:07:56;3.80;99.90
71367;DHT22;60030;52.274;8.040;2023-04-03T07:10:23;3.80;99.90
71367;DHT22;60030;52.274;8.040;2023-04-03T07:12:51;3.70;99.90
71367;DHT22;60030;52.274;8.040;2023-04-03T07:15:19;3.80;99.90
71367;DHT22;60030;52.274;8.040;2023-04-03T07:17:46;3.80;99.90
71367;DHT22;60030;52.274;8.040;2023-04-03T07:20:13;3.90;99.90
71367;DHT22;60030;52.274;8.040;2023-04-03T07:22:40;3.90;99.90
71367;DHT22;60030;52.274;8.040;2023-04-03T07:25:08;3.80;99.90
71367;DHT22;60030;52.274;8.040;2023-04-03T07:27:36;3.90;99.90
71367;DHT22;60030;52.274;8.040;2023-04-03T07:30:05;4.10;99.90
71367;DHT22;60030;52.274;8.040;2023-04-03T07:32:33;4.10;99.90
71367;DHT22;60030;52.274;8.040;2023-04-03T07:35:00;4.20;99.90
71367;DHT22;60030;52.274;8.040;2023-04-03T07:37:27;4.20;99.90
71367;DHT22;60030;52.274;8.040;2023-04-03T07:39:55;4.20;99.90
71367;DHT22;60030;52.274;8.040;2023-04-03T07:42:24;4.40;99.90
71367;DHT22;60030;52.274;8.040;2023-04-03T07:44:52;4.40;99.90
71367;DHT22;60030;52.274;8.040;2023-04-03T07:47:20;4.60;99.90
71367;DHT22;60030;52.274;8.040;2023-04-03T07:49:47;4.60;99.90
71367;DHT22;60030;52.274;8.040;2023-04-03T07:52:15;4.50;99.90
71367;DHT22;60030;52.274;8.040;2023-04-03T07:54:42;4.50;99.90
71367;DHT22;60030;52.274;8.040;2023-04-03T07:57:09;4.60;99.90
71367;DHT22;60030;52.274;8.040;2023-04-03T07:59:36;4.70;99.90
71367;DHT22;60030;52.274;8.040;2023-04-03T08:02:03;4.70;99.90
71367;DHT22;60030;52.274;8.040;2023-04-03T08:04:32;4.70;99.90
71367;DHT22;60030;52.274;8.040;2023-04-03T08:06:59;4.80;99.90
71367;DHT22;60030;52.274;8.040;2023-04-03T08:09:26;4.90;99.90
71367;DHT22;60030;52.274;8.040;2023-04-03T08:11:53;5.00;99.90
71367;DHT22;60030;52.274;8.040;2023-04-03T08:14:20;5.00;99.90
71367;DHT22;60030;52.274;8.040;2023-04-03T08:16:47;5.00;99.90
71367;DHT22;60030;52.274;8.040;2023-04-03T08:19:15;5.10;99.90
71367;DHT22;60030;52.274;8.040;2023-04-03T08:21:45;5.20;99.90
71367;DHT22;60030;52.274;8.040;2023-04-03T08:24:12;5.10;99.90
71367;DHT22;60030;52.274;8.040;2023-04-03T08:26:39;5.20;99.90
71367;DHT22;60030;52.274;8.040;2023-04-03T08:29:06;5.20;99.90
71367;DHT22;60030;52.274;8.040;2023-04-03T08:31:33;5.40;99.90
71367;DHT22;60030;52.274;8.040;2023-04-03T08:34:00;5.30;99.90
71367;DHT22;60030;52.274;8.040;2023-04-03T08:36:28;5.40;99.90
71367;DHT22;60030;52.274;8.040;2023-04-03T08:38:57;5.30;99.90
71367;DHT22;60030;52.274;8.040;2023-04-03T08:41:31;5.40;99.90
71367;DHT22;60030;52.274;8.040;2023-04-03T08:44:11;5.50;99.90
71367;DHT22;60030;52.274;8.040;2023-04-03T08:46:56;5.60;99.90
71367;DHT22;60030;52.274;8.040;2023-04-03T08:49:31;5.50;99.90
71367;DHT22;60030;52.274;8.040;2023-04-03T08:52:02;5.60;99.90
71367;DHT22;60030;52.274;8.040;2023-04-03T08:54:35;5.70;99.90
71367;DHT22;60030;52.274;8.040;2023-04-03T08:57:05;5.80;99.90
71367;DHT22;60030;52.274;8.040;2023-04-03T08:59:35;5.80;99.90
71367;DHT22;60030;52.274;8.040;2023-04-03T09:02:17;5.80;99.90
71367;DHT22;60030;52.274;8.040;2023-04-03T09:04:47;5.60;99.90
71367;DHT22;60030;52.274;8.040;2023-04-03T09:07:20;5.70;99.90
71367;DHT22;60030;52.274;8.040;2023-04-03T09:09:50;5.90;99.90
71367;DHT22;60030;52.274;8.040;2023-04-03T09:12:23;6.10;99.90
71367;DHT22;60030;52.274;8.040;2023-04-03T09:14:59;6.10;99.90
71367;DHT22;60030;52.274;8.040;2023-04-03T09:17:38;6.20;99.90
71367;DHT22;60030;52.274;8.040;2023-04-03T09:20:19;6.00;99.90
71367;DHT22;60030;52.274;8.040;2023-04-03T09:22:50;6.00;99.90
71367;DHT22;60030;52.274;8.040;2023-04-03T09:25:22;6.20;99.90
71367;DHT22;60030;52.274;8.040;2023-04-03T09:27:50;6.10;99.90
71367;DHT22;60030;52.274;8.040;2023-04-03T09:30:20;6.10;99.90
71367;DHT22;60030;52.274;8.040;2023-04-03T09:32:49;6.20;99.90
71367;DHT22;60030;52.274;8.040;2023-04-03T09:35:20;6.40;99.90
71367;DHT22;60030;52.274;8.040;2023-04-03T09:37:50;6.50;99.90
71367;DHT22;60030;52.274;8.040;2023-04-03T09:40:34;6.60;99.90
71367;DHT22;60030;52.274;8.040;2023-04-03T09:43:22;6.70;99.90
71367;DHT22;60030;52.274;8.040;2023-04-03T09:45:50;6.90;99.90
71367;DHT22;60030;52.274;8.040;2023-04-03T09:48:20;6.90;99.90
71367;DHT22;60030;52.274;8.040;2023-04-03T09:50:59;6.90;99.90
71367;DHT22;60030;52.274;8.040;2023-04-03T09:53:33;7.00;99.90
71367;DHT22;60030;52.274;8.040;2023-04-03T09:56:04;7.00;99.90
71367;DHT22;60030;52.274;8.040;2023-04-03T09:58:35;7.00;99.80
71367;DHT22;60030;52.274;8.040;2023-04-03T10:01:04;7.20;99.90
71367;DHT22;60030;52.274;8.040;2023-04-03T10:03:34;7.20;99.80
71367;DHT22;60030;52.274;8.040;2023-04-03T10:06:03;7.20;99.70
71367;DHT22;60030;52.274;8.040;2023-04-03T10:08:34;7.30;99.90
71367;DHT22;60030;52.274;8.040;2023-04-03T10:11:12;7.30;99.90
71367;DHT22;60030;52.274;8.040;2023-04-03T10:13:53;7.20;99.90
71367;DHT22;60030;52.274;8.040;2023-04-03T10:16:24;7.20;99.40
71367;DHT22;60030;52.274;8.040;2023-04-03T10:19:06;7.20;98.90
71367;DHT22;60030;52.274;8.040;2023-04-03T10:21:45;7.00;98.40
71367;DHT22;60030;52.274;8.040;2023-04-03T10:24:18;7.00;99.00
71367;DHT22;60030;52.274;8.040;2023-04-03T10:26:56;7.20;98.80
71367;DHT22;60030;52.274;8.040;2023-04-03T10:29:35;7.40;99.60
71367;DHT22;60030;52.274;8.040;2023-04-03T10:32:22;7.20;98.70
71367;DHT22;60030;52.274;8.040;2023-04-03T10:35:00;7.50;99.30
71367;DHT22;60030;52.274;8.040;2023-04-03T10:37:33;7.60;97.70
71367;DHT22;60030;52.274;8.040;2023-04-03T10:40:20;7.70;96.40
71367;DHT22;60030;52.274;8.040;2023-04-03T10:42:53;7.70;95.20
71367;DHT22;60030;52.274;8.040;2023-04-03T10:45:26;7.90;94.10
71367;DHT22;60030;52.274;8.040;2023-04-03T10:48:01;7.90;94.30
71367;DHT22;60030;52.274;8.040;2023-04-03T10:50:38;8.20;93.90
71367;DHT22;60030;52.274;8.040;2023-04-03T10:53:11;8.60;93.60
71367;DHT22;60030;52.274;8.040;2023-04-03T10:55:46;8.80;92.00
71367;DHT22;60030;52.274;8.040;2023-04-03T10:58:23;8.70;91.60
71367;DHT22;60030;52.274;8.040;2023-04-03T11:00:53;8.90;88.20
71367;DHT22;60030;52.274;8.040;2023-04-03T11:03:29;9.00;85.40
71367;DHT22;60030;52.274;8.040;2023-04-03T11:05:59;9.00;82.50
71367;DHT22;60030;52.274;8.040;2023-04-03T11:08:34;9.20;81.10
71367;DHT22;60030;52.274;8.040;2023-04-03T11:11:06;9.20;81.50
71367;DHT22;60030;52.274;8.040;2023-04-03T11:13:40;9.30;81.50
71367;DHT22;60030;52.274;8.040;2023-04-03T11:16:09;9.80;82.00
71367;DHT22;60030;52.274;8.040;2023-04-03T11:18:44;9.60;80.70
71367;DHT22;60030;52.274;8.040;2023-04-03T11:21:17;9.50;81.90
71367;DHT22;60030;52.274;8.040;2023-04-03T11:23:47;9.80;80.10
71367;DHT22;60030;52.274;8.040;2023-04-03T11:26:17;10.00;79.80
71367;DHT22;60030;52.274;8.040;2023-04-03T11:28:46;9.70;78.70
71367;DHT22;60030;52.274;8.040;2023-04-03T11:31:29;9.70;80.10
71367;DHT22;60030;52.274;8.040;2023-04-03T11:34:05;9.30;81.00
71367;DHT22;60030;52.274;8.040;2023-04-03T11:36:40;9.40;81.80
71367;DHT22;60030;52.274;8.040;2023-04-03T11:39:15;9.30;80.80
71367;DHT22;60030;52.274;8.040;2023-04-03T11:41:44;9.60;79.70
71367;DHT22;60030;52.274;8.040;2023-04-03T11:44:32;9.60;81.10
71367;DHT22;60030;52.274;8.040;2023-04-03T11:47:00;9.60;80.20
71367;DHT22;60030;52.274;8.040;2023-04-03T11:49:53;9.80;79.40
71367;DHT22;60030;52.274;8.040;2023-04-03T11:52:57;10.00;79.90
71367;DHT22;60030;52.274;8.040;2023-04-03T11:55:43;9.40;78.50
71367;DHT22;60030;52.274;8.040;2023-04-03T11:58:16;9.70;80.90
71367;DHT22;60030;52.274;8.040;2023-04-03T12:01:07;9.20;79.60
71367;DHT22;60030;52.274;8.040;2023-04-03T12:06:59;9.20;81.50
71367;DHT22;60030;52.274;8.040;2023-04-03T12:09:31;9.30;81.90
71367;DHT22;60030;52.274;8.040;2023-04-03T12:12:00;9.30;82.30
71367;DHT22;60030;52.274;8.040;2023-04-03T12:14:28;9.60;81.90
71367;DHT22;60030;52.274;8.040;2023-04-03T12:16:57;9.70;80.10
71367;DHT22;60030;52.274;8.040;2023-04-03T12:19:30;9.90;79.70
71367;DHT22;60030;52.274;8.040;2023-04-03T12:22:07;9.80;78.00
71367;DHT22;60030;52.274;8.040;2023-04-03T12:24:36;10.60;77.10
71367;DHT22;60030;52.274;8.040;2023-04-03T12:27:22;10.80;74.00
71367;DHT22;60030;52.274;8.040;2023-04-03T12:29:55;11.10;73.80
71367;DHT22;60030;52.274;8.040;2023-04-03T12:35:35;11.80;70.90
71367;DHT22;60030;52.274;8.040;2023-04-03T12:38:33;12.00;69.60
71367;DHT22;60030;52.274;8.040;2023-04-03T12:41:18;11.60;70.00
71367;DHT22;60030;52.274;8.040;2023-04-03T12:44:02;11.20;69.30
71367;DHT22;60030;52.274;8.040;2023-04-03T12:46:36;10.80;70.20
71367;DHT22;60030;52.274;8.040;2023-04-03T12:49:22;10.60;72.20
71367;DHT22;60030;52.274;8.040;2023-04-03T12:51:53;10.50;71.30
71367;DHT22;60030;52.274;8.040;2023-04-03T12:54:23;11.20;69.60
71367;DHT22;60030;52.274;8.040;2023-04-03T12:57:09;11.30;68.60
71367;DHT22;60030;52.274;8.040;2023-04-03T12:59:36;10.70;67.40
71367;DHT22;60030;52.274;8.040;2023-04-03T13:02:17;10.40;69.80
71367;DHT22;60030;52.274;8.040;2023-04-03T13:04:47;10.00;70.90
71367;DHT22;60030;52.274;8.040;2023-04-03T13:07:25;10.30;71.60
71367;DHT22;60030;52.274;8.040;2023-04-03T13:10:03;10.50;70.80
71367;DHT22;60030;52.274;8.040;2023-04-03T13:12:31;10.20;69.50
71367;DHT22;60030;52.274;8.040;2023-04-03T13:15:00;10.30;70.20
71367;DHT22;60030;52.274;8.040;2023-04-03T13:17:29;10.30;70.90
71367;DHT22;60030;52.274;8.040;2023-04-03T13:20:12;10.60;71.20
71367;DHT22;60030;52.274;8.040;2023-04-03T13:22:47;13.00;66.30
71367;DHT22;60030;52.274;8.040;2023-04-03T13:25:16;12.00;64.40
71367;DHT22;60030;52.274;8.040;2023-04-03T13:27:44;11.50;67.00
71367;DHT22;60030;52.274;8.040;2023-04-03T13:30:22;12.10;66.30
71367;DHT22;60030;52.274;8.040;2023-04-03T13:32:50;11.00;65.10
71367;DHT22;60030;52.274;8.040;2023-04-03T13:35:33;10.40;67.20
71367;DHT22;60030;52.274;8.040;2023-04-03T13:38:05;10.10;67.80
71367;DHT22;60030;52.274;8.040;2023-04-03T13:40:32;10.00;68.30
71367;DHT22;60030;52.274;8.040;2023-04-03T13:43:05;10.20;68.40
71367;DHT22;60030;52.274;8.040;2023-04-03T13:45:33;13.10;63.70
71367;DHT22;60030;52.274;8.040;2023-04-03T13:48:16;16.40;55.80
71367;DHT22;60030;52.274;8.040;2023-04-03T13:50:54;17.40;50.80
71367;DHT22;60030;52.274;8.040;2023-04-03T13:53:22;17.90;48.30
71367;DHT22;60030;52.274;8.040;2023-04-03T13:55:57;15.70;50.10
71367;DHT22;60030;52.274;8.040;2023-04-03T13:58:25;14.10;54.30
71367;DHT22;60030;52.274;8.040;2023-04-03T14:00:54;13.10;56.30
71367;DHT22;60030;52.274;8.040;2023-04-03T14:03:24;11.70;58.20
71367;DHT22;60030;52.274;8.040;2023-04-03T14:05:53;11.40;59.00
71367;DHT22;60030;52.274;8.040;2023-04-03T14:08:21;11.50;59.10
71367;DHT22;60030;52.274;8.040;2023-04-03T14:10:48;15.60;53.90
71367;DHT22;60030;52.274;8.040;2023-04-03T14:13:18;17.60;48.60
71367;DHT22;60030;52.274;8.040;2023-04-03T14:15:47;18.90;45.30
71367;DHT22;60030;52.274;8.040;2023-04-03T14:18:16;19.00;44.60
71367;DHT22;60030;52.274;8.040;2023-04-03T14:20:44;19.50;42.80
71367;DHT22;60030;52.274;8.040;2023-04-03T14:23:12;20.30;42.80
71367;DHT22;60030;52.274;8.040;2023-04-03T14:25:40;20.80;41.70
71367;DHT22;60030;52.274;8.040;2023-04-03T14:28:15;20.80;41.30
71367;DHT22;60030;52.274;8.040;2023-04-03T14:30:43;21.10;41.80
71367;DHT22;60030;52.274;8.040;2023-04-03T14:33:13;20.40;40.60
71367;DHT22;60030;52.274;8.040;2023-04-03T14:35:41;17.90;43.40
71367;DHT22;60030;52.274;8.040;2023-04-03T14:38:21;15.80;46.70
71367;DHT22;60030;52.274;8.040;2023-04-03T14:40:49;14.10;49.60
71367;DHT22;60030;52.274;8.040;2023-04-03T14:43:17;13.30;51.70
71367;DHT22;60030;52.274;8.040;2023-04-03T14:45:46;14.90;51.30
71367;DHT22;60030;52.274;8.040;2023-04-03T14:48:18;13.50;51.10
71367;DHT22;60030;52.274;8.040;2023-04-03T14:50:46;13.00;53.00
71367;DHT22;60030;52.274;8.040;2023-04-03T14:53:15;12.50;54.00
71367;DHT22;60030;52.274;8.040;2023-04-03T14:55:44;12.60;54.20
71367;DHT22;60030;52.274;8.040;2023-04-03T14:58:13;12.70;54.50
71367;DHT22;60030;52.274;8.040;2023-04-03T15:00:41;15.10;51.40
71367;DHT22;60030;52.274;8.040;2023-04-03T15:03:13;16.70;48.20
71367;DHT22;60030;52.274;8.040;2023-04-03T15:05:42;16.30;47.70
71367;DHT22;60030;52.274;8.040;2023-04-03T15:08:19;16.40;46.80
71367;DHT22;60030;52.274;8.040;2023-04-03T15:10:47;15.50;47.80
71367;DHT22;60030;52.274;8.040;2023-04-03T15:13:15;14.90;49.00
71367;DHT22;60030;52.274;8.040;2023-04-03T15:15:42;14.50;50.40
71367;DHT22;60030;52.274;8.040;2023-04-03T15:18:17;14.20;50.70
71367;DHT22;60030;52.274;8.040;2023-04-03T15:20:46;13.70;50.80
71367;DHT22;60030;52.274;8.040;2023-04-03T15:23:15;14.20;51.40
71367;DHT22;60030;52.274;8.040;2023-04-03T15:25:45;13.90;51.50
71367;DHT22;60030;52.274;8.040;2023-04-03T15:28:19;14.30;51.30
71367;DHT22;60030;52.274;8.040;2023-04-03T15:30:48;13.50;51.10
71367;DHT22;60030;52.274;8.040;2023-04-03T15:33:15;13.40;51.80
71367;DHT22;60030;52.274;8.040;2023-04-03T15:35:42;13.40;51.80
71367;DHT22;60030;52.274;8.040;2023-04-03T15:38:10;12.90;52.60
71367;DHT22;60030;52.274;8.040;2023-04-03T15:40:37;13.10;53.50
71367;DHT22;60030;52.274;8.040;2023-04-03T15:43:06;12.60;53.00
71367;DHT22;60030;52.274;8.040;2023-04-03T15:45:35;12.70;54.20
71367;DHT22;60030;52.274;8.040;2023-04-03T15:48:03;13.00;53.00
71367;DHT22;60030;52.274;8.040;2023-04-03T15:50:31;12.70;53.00
71367;DHT22;60030;52.274;8.040;2023-04-03T15:52:59;12.40;53.40
71367;DHT22;60030;52.274;8.040;2023-04-03T15:55:29;11.80;53.60
71367;DHT22;60030;52.274;8.040;2023-04-03T15:57:56;11.70;55.00
71367;DHT22;60030;52.274;8.040;2023-04-03T16:00:25;11.80;55.00
71367;DHT22;60030;52.274;8.040;2023-04-03T16:02:55;12.60;54.90
71367;DHT22;60030;52.274;8.040;2023-04-03T16:05:25;13.30;53.80
71367;DHT22;60030;52.274;8.040;2023-04-03T16:07:52;13.10;52.40
71367;DHT22;60030;52.274;8.040;2023-04-03T16:10:19;13.40;52.30
71367;DHT22;60030;52.274;8.040;2023-04-03T16:12:46;15.00;49.50